Terminal Aerodrome Forecast
Issued by NWS Amarillo, TX

Home | Current Version | Previous Version | Text Only | Print | Product List | Glossary On
Versions: 1 2 3 4 5 6 7 8 9 10 11 12 13 14 15 16 17
000
FTUS44 KAMA 310520
TAFAMA
TAF
KAMA 310520Z 3106/0106 14011KT P6SM VCTS SCT040CB BKN200
      TEMPO 3106/3110 VRB35G45KT 2SM TSRA BR OVC025CB
     FM311000 18008KT P6SM SCT020 BKN120
     FM311600 10011KT P6SM SCT030 BKN110
     FM312000 07011KT P6SM OVC025 PROB30 3122/0104 4SM TSRA
      OVC015CB=

USA.gov is the U.S. government's official web portal to all federal, state and local government web resources and services.